Poncha Springs, Colorado
Current Conditions -  °F | °C
As of 9:15 AM on Monday 22 Dec 2014 (Local Time) from KANK Reporting Station
Overcast Overcast  
Wind Chill: 32°   Ceiling: 5000
Heat Index: 32°   Visibility: 10mi
Dew Point: 27°   Wind: 3mph
Humidity: 82%   Direction: 300°WNW
Pressure: 29.83"   Gusts: NA
Location:  38.51°N, 106.08°W
Report Text: KANK 221615Z AUTO 30003KT 10SM SCT047 BKN050 OVC070 00/M03 A2983 RMK AO1 T10011028
Loading
Personal Weather Stations






























Interactive Weather Map New forecast layout! Learn more

10-Day Weather Forecast

Advertisements
Track Severe Weather on mobile